createdAt,value
2023-10-05T00:01:17.974Z,81.51
2023-10-05T00:03:45.491Z,81.94
2023-10-05T00:06:15.382Z,82.07
2023-10-05T00:08:46.000Z,81.77
2023-10-05T00:11:24.304Z,82.14
2023-10-05T00:13:55.261Z,82.57
2023-10-05T00:16:22.226Z,82.06
2023-10-05T00:18:52.679Z,81.75
2023-10-05T00:21:21.068Z,82.80
2023-10-05T00:23:53.004Z,82.30
2023-10-05T00:26:23.318Z,83.04
2023-10-05T00:29:05.301Z,83.77
2023-10-05T00:31:34.180Z,82.28
2023-10-05T00:34:30.304Z,82.70
2023-10-05T00:37:00.603Z,82.91
2023-10-05T00:39:31.319Z,83.49
2023-10-05T00:42:04.409Z,82.21
2023-10-05T00:44:32.115Z,81.81
2023-10-05T00:47:02.323Z,81.21
2023-10-05T00:49:31.013Z,81.39
2023-10-05T00:52:18.430Z,82.67
2023-10-05T00:54:52.303Z,82.01
2023-10-05T00:57:26.088Z,82.66
2023-10-05T01:00:19.372Z,82.05
2023-10-05T01:03:18.243Z,81.72
2023-10-05T01:06:10.850Z,83.60
2023-10-05T01:11:44.297Z,82.82
2023-10-05T01:14:11.694Z,81.70
2023-10-05T01:16:38.582Z,83.13
2023-10-05T01:19:09.728Z,84.36
2023-10-05T01:21:37.131Z,84.50
2023-10-05T01:24:04.223Z,82.99
2023-10-05T01:26:33.280Z,83.33
2023-10-05T01:28:59.832Z,83.72
2023-10-05T01:31:27.174Z,83.81
2023-10-05T01:33:53.970Z,82.94
2023-10-05T01:36:23.818Z,83.50
2023-10-05T01:38:50.456Z,82.73
2023-10-05T02:04:13.049Z,84.72
2023-10-05T02:06:44.420Z,84.39
2023-10-05T02:09:11.806Z,83.43
2023-10-05T02:11:41.915Z,83.63
2023-10-05T02:14:13.676Z,82.22
2023-10-05T02:16:40.534Z,82.22
2023-10-05T02:19:09.457Z,83.06
2023-10-05T02:21:39.364Z,82.66
2023-10-05T02:24:19.401Z,82.61
2023-10-05T02:26:59.159Z,83.96
2023-10-05T02:29:29.955Z,84.43
2023-10-05T02:32:02.923Z,82.96
2023-10-05T02:34:40.022Z,83.14
2023-10-05T02:37:08.866Z,83.54
2023-10-05T02:39:37.745Z,82.44
2023-10-05T02:42:13.301Z,82.52
2023-10-05T02:44:40.978Z,82.44
2023-10-05T02:47:11.800Z,82.38
2023-10-05T02:49:45.352Z,82.48
2023-10-05T03:27:05.316Z,82.76
2023-10-05T03:29:36.733Z,82.28
2023-10-05T03:32:10.268Z,82.34
2023-10-05T03:34:38.361Z,83.79
2023-10-05T03:37:09.646Z,83.92
2023-10-05T03:39:55.416Z,83.55
2023-10-05T03:42:25.621Z,84.18
2023-10-05T03:45:05.186Z,84.50
2023-10-05T03:47:32.792Z,83.25
2023-10-05T03:49:59.859Z,83.10
2023-10-05T03:52:31.711Z,83.08
2023-10-05T03:55:02.554Z,82.91
2023-10-05T03:57:32.677Z,83.17
2023-10-05T04:00:02.095Z,82.70
2023-10-05T04:02:39.049Z,85.46
2023-10-05T04:05:10.644Z,84.81
2023-10-05T04:07:37.426Z,83.52
2023-10-05T04:10:04.975Z,84.19
2023-10-05T04:12:33.820Z,83.27
2023-10-05T04:15:10.144Z,83.53
2023-10-05T04:17:37.422Z,82.73
2023-10-05T04:20:18.740Z,83.01
2023-10-05T04:22:47.508Z,83.86
2023-10-05T04:25:17.752Z,84.67
2023-10-05T04:27:49.370Z,84.36
2023-10-05T04:30:22.495Z,85.18
2023-10-05T04:32:49.992Z,85.68
2023-10-05T04:35:22.791Z,84.43
2023-10-05T04:37:51.281Z,84.57
2023-10-05T04:40:20.046Z,84.06
2023-10-05T04:42:46.761Z,84.02
2023-10-05T04:45:15.320Z,84.71
2023-10-05T04:47:42.740Z,84.02
2023-10-05T04:50:14.388Z,84.82
2023-10-05T04:52:41.225Z,84.94
2023-10-05T04:55:19.317Z,83.99
2023-10-05T04:58:16.048Z,83.25
2023-10-05T05:00:48.681Z,82.56
2023-10-05T05:03:27.363Z,83.19
2023-10-05T05:06:06.293Z,83.52
2023-10-05T05:08:41.834Z,83.41
2023-10-05T05:11:17.952Z,83.76
2023-10-05T05:13:44.520Z,83.77
2023-10-05T05:16:11.162Z,83.59
2023-10-05T05:18:42.471Z,82.77
2023-10-05T05:21:09.442Z,83.80
2023-10-05T05:23:36.655Z,84.92
2023-10-05T05:26:04.792Z,83.63
2023-10-05T05:28:31.618Z,84.17
2023-10-05T05:31:06.156Z,83.62
2023-10-05T05:33:32.902Z,84.40
2023-10-05T05:35:59.512Z,84.96
2023-10-05T05:38:26.095Z,84.85
2023-10-05T05:40:54.650Z,83.84
2023-10-05T05:43:22.421Z,84.96
2023-10-05T05:45:49.042Z,86.27
2023-10-05T05:48:16.043Z,86.10
2023-10-05T05:50:43.894Z,85.63
2023-10-05T05:53:13.891Z,85.48
2023-10-05T05:55:54.235Z,84.71
2023-10-05T05:58:21.202Z,84.82
2023-10-05T06:00:47.992Z,85.73
2023-10-05T06:03:15.576Z,85.27
2023-10-05T06:05:42.361Z,85.88
2023-10-05T06:08:12.713Z,86.11
2023-10-05T06:10:39.480Z,85.42
2023-10-05T06:13:13.062Z,85.77
2023-10-05T06:15:40.412Z,85.68
2023-10-05T06:18:07.008Z,86.47
2023-10-05T06:20:33.733Z,86.38
2023-10-05T06:23:01.795Z,85.72
2023-10-05T06:25:28.824Z,87.99
2023-10-05T06:27:55.680Z,86.56
2023-10-05T06:30:22.629Z,86.14
2023-10-05T06:32:49.656Z,86.39
2023-10-05T06:35:18.790Z,86.43
2023-10-05T06:37:45.885Z,86.25
2023-10-05T06:40:15.651Z,86.54
2023-10-05T06:42:43.457Z,87.24
2023-10-05T06:45:12.335Z,86.71
2023-10-05T06:47:39.414Z,86.45
2023-10-05T06:50:12.391Z,86.22
2023-10-05T06:52:41.027Z,85.30
2023-10-05T06:55:13.192Z,85.73
2023-10-05T06:57:40.660Z,85.50
2023-10-05T07:00:23.607Z,85.24
2023-10-05T07:02:51.358Z,84.89
2023-10-05T07:05:18.396Z,84.55
2023-10-05T07:07:45.402Z,85.03
2023-10-05T07:10:16.468Z,84.82
2023-10-05T07:12:46.262Z,84.46
2023-10-05T07:15:13.308Z,82.81
2023-10-05T07:17:40.024Z,82.92
2023-10-05T07:20:12.346Z,82.25
2023-10-05T07:22:42.417Z,81.25
2023-10-05T07:25:10.339Z,81.44
2023-10-05T07:27:37.249Z,81.21
2023-10-05T07:30:04.973Z,80.25
2023-10-05T07:32:32.724Z,80.68
2023-10-05T07:34:59.427Z,80.00
2023-10-05T07:37:27.444Z,79.52
2023-10-05T07:39:54.315Z,80.30
2023-10-05T07:42:21.303Z,81.12
2023-10-05T07:44:47.894Z,79.32
2023-10-05T07:47:16.306Z,80.18
2023-10-05T07:49:43.258Z,79.59
2023-10-05T07:52:13.234Z,78.98
2023-10-05T07:54:40.070Z,79.29
2023-10-05T07:57:12.663Z,79.46
2023-10-05T07:59:42.073Z,78.79
2023-10-05T08:02:09.687Z,79.48
2023-10-05T08:04:37.039Z,77.99
2023-10-05T08:07:04.302Z,78.99
2023-10-05T08:09:31.307Z,79.52
2023-10-05T08:12:00.640Z,79.78
2023-10-05T08:14:27.883Z,79.16
2023-10-05T08:16:59.163Z,78.94
2023-10-05T08:19:29.409Z,79.55
2023-10-05T08:21:56.375Z,79.38
2023-10-05T08:24:25.134Z,80.23
2023-10-05T08:27:00.314Z,79.07
2023-10-05T08:29:29.099Z,78.64
2023-10-05T08:31:55.856Z,80.22
2023-10-05T08:34:22.641Z,78.95
2023-10-05T08:36:54.728Z,77.90
2023-10-05T08:39:26.854Z,77.66
2023-10-05T08:41:58.986Z,77.01
2023-10-05T08:44:31.731Z,76.98
2023-10-05T08:46:59.452Z,76.54
2023-10-05T08:49:28.049Z,76.37
2023-10-05T08:52:04.077Z,76.26
2023-10-05T08:54:34.722Z,76.09
2023-10-05T08:57:10.625Z,75.82
2023-10-05T08:59:46.057Z,75.79
2023-10-05T09:02:23.404Z,75.16
2023-10-05T09:04:57.135Z,75.19
2023-10-05T09:07:40.297Z,72.88
2023-10-05T09:10:09.415Z,73.00
2023-10-05T09:12:36.882Z,71.54
2023-10-05T09:15:06.118Z,73.44
2023-10-05T09:17:35.813Z,72.78
2023-10-05T09:20:22.766Z,73.39
2023-10-05T09:22:52.060Z,74.73
2023-10-05T09:25:27.472Z,75.07
2023-10-05T09:27:59.517Z,74.53
2023-10-05T09:30:30.842Z,73.35
2023-10-05T09:33:19.906Z,74.15
2023-10-05T09:35:48.155Z,73.60
2023-10-05T09:38:15.056Z,74.84
2023-10-05T09:40:42.235Z,73.53
2023-10-05T09:43:11.543Z,73.86
2023-10-05T09:45:40.608Z,73.92
2023-10-05T09:48:08.512Z,73.58
2023-10-05T09:50:35.994Z,74.57
2023-10-05T09:53:06.522Z,73.90
2023-10-05T09:55:34.056Z,73.97
2023-10-05T09:58:07.129Z,73.99
2023-10-05T10:00:39.808Z,75.26
2023-10-05T10:03:07.069Z,74.42
2023-10-05T10:05:40.171Z,73.81
2023-10-05T10:08:14.627Z,74.50
2023-10-05T10:11:02.257Z,74.66
2023-10-05T10:13:29.518Z,74.35
2023-10-05T10:15:58.963Z,74.87
2023-10-05T10:18:32.299Z,75.25
2023-10-05T10:20:59.737Z,75.54
2023-10-05T10:23:39.358Z,74.25
2023-10-05T10:26:19.483Z,74.71
2023-10-05T10:29:08.003Z,73.51
2023-10-05T10:31:44.327Z,74.50
2023-10-05T10:34:35.596Z,74.04
2023-10-05T10:37:04.620Z,73.45
2023-10-05T10:39:32.882Z,75.18
2023-10-05T10:42:08.635Z,75.30
2023-10-05T10:45:08.480Z,73.87
2023-10-05T10:47:40.974Z,74.64
2023-10-05T10:50:17.166Z,74.76
2023-10-05T10:52:46.727Z,74.41
2023-10-05T10:55:16.913Z,74.26
2023-10-05T10:57:48.424Z,74.78
2023-10-05T11:00:37.124Z,74.80
2023-10-05T11:03:13.776Z,74.63
2023-10-05T11:05:41.415Z,74.45
2023-10-05T11:08:08.840Z,74.97
2023-10-05T11:10:35.579Z,74.63
2023-10-05T11:13:15.705Z,74.39
2023-10-05T11:15:59.460Z,73.49
2023-10-05T11:18:27.334Z,73.25
2023-10-05T11:20:54.311Z,73.78
2023-10-05T11:23:26.689Z,73.11
2023-10-05T11:26:14.215Z,73.06
2023-10-05T11:28:41.031Z,73.49
2023-10-05T11:31:22.570Z,73.40
2023-10-05T11:34:45.988Z,72.36
2023-10-05T11:36:45.791Z,72.08
2023-10-05T11:39:44.937Z,72.64
2023-10-05T11:42:12.451Z,73.36
2023-10-05T11:44:43.287Z,73.33
2023-10-05T11:47:20.632Z,73.87
2023-10-05T11:49:47.564Z,73.35
2023-10-05T11:52:17.280Z,73.15
2023-10-05T11:54:43.934Z,73.23
2023-10-05T11:57:10.509Z,73.34
2023-10-05T11:59:37.282Z,73.65
2023-10-05T12:02:07.182Z,73.03
2023-10-05T12:04:34.142Z,73.42
2023-10-05T12:07:01.110Z,73.67
2023-10-05T12:09:29.010Z,73.45
2023-10-05T12:11:55.679Z,74.25
2023-10-05T12:14:22.360Z,73.10
2023-10-05T12:16:49.214Z,73.50
2023-10-05T12:19:16.379Z,74.29
2023-10-05T12:21:44.359Z,74.26
2023-10-05T12:24:14.000Z,74.62
2023-10-05T12:26:44.618Z,75.30
2023-10-05T12:29:15.013Z,74.75
2023-10-05T12:31:42.168Z,75.42
2023-10-05T12:34:28.856Z,74.62
2023-10-05T12:36:57.015Z,75.03
2023-10-05T12:39:29.002Z,74.32
2023-10-05T12:41:56.175Z,74.27
2023-10-05T12:44:24.620Z,74.71
2023-10-05T12:46:51.666Z,76.11
2023-10-05T12:49:18.610Z,76.04
2023-10-05T12:51:46.456Z,77.23
2023-10-05T12:54:33.518Z,78.92
2023-10-05T12:57:21.202Z,79.96
2023-10-05T12:59:49.751Z,80.79
2023-10-05T13:02:17.178Z,81.38
2023-10-05T13:04:44.328Z,82.44
2023-10-05T13:07:11.012Z,81.65
2023-10-05T13:09:39.467Z,82.45
2023-10-05T13:12:13.478Z,81.23
2023-10-05T13:14:40.943Z,80.50
2023-10-05T13:17:13.582Z,79.18
2023-10-05T13:19:40.878Z,76.92
2023-10-05T13:22:07.799Z,75.07
2023-10-05T13:24:35.362Z,75.32
2023-10-05T13:27:02.754Z,75.57
2023-10-05T13:29:29.620Z,74.63
2023-10-05T13:31:57.445Z,73.92
2023-10-05T13:34:29.337Z,75.10
2023-10-05T13:36:56.223Z,76.05
2023-10-05T13:39:23.238Z,76.88
2023-10-05T13:42:01.261Z,76.09
2023-10-05T13:44:31.875Z,76.97
2023-10-05T13:47:03.077Z,76.02
2023-10-05T13:49:33.962Z,76.33
2023-10-05T13:52:07.570Z,77.38
2023-10-05T13:54:36.393Z,77.39
2023-10-05T13:57:03.185Z,77.21
2023-10-05T13:59:32.741Z,78.54
2023-10-05T14:02:04.587Z,78.97
2023-10-05T14:04:32.096Z,79.77
2023-10-05T14:07:11.297Z,80.26
2023-10-05T14:09:58.160Z,82.42
2023-10-05T14:12:26.739Z,83.80
2023-10-05T14:14:54.022Z,87.62
2023-10-05T14:17:22.935Z,91.85
2023-10-05T14:19:49.717Z,96.74
2023-10-05T14:22:18.767Z,94.20
2023-10-05T14:24:47.059Z,93.68
2023-10-05T14:27:17.402Z,93.20
2023-10-05T14:29:48.783Z,94.25
2023-10-05T14:32:16.830Z,95.66
2023-10-05T14:34:51.257Z,95.95
2023-10-05T14:37:18.064Z,97.37
2023-10-05T14:39:46.302Z,98.02
2023-10-05T14:42:15.524Z,99.16
2023-10-05T14:44:45.467Z,98.87
2023-10-05T14:47:15.369Z,98.71
2023-10-05T14:49:45.715Z,98.32
2023-10-05T14:52:12.951Z,97.24
2023-10-05T14:54:39.578Z,96.71
2023-10-05T14:57:10.979Z,95.83
2023-10-05T14:59:42.160Z,95.99
2023-10-05T15:02:08.848Z,96.37
2023-10-05T15:04:37.469Z,96.91
2023-10-05T15:07:04.108Z,96.47
2023-10-05T15:09:31.191Z,96.29
2023-10-05T15:11:59.064Z,96.25
2023-10-05T15:14:25.667Z,97.00
2023-10-05T15:16:55.615Z,97.20
2023-10-05T15:19:25.883Z,98.18
2023-10-05T15:21:52.774Z,97.88
2023-10-05T15:24:20.982Z,98.14
2023-10-05T15:26:50.035Z,99.06
2023-10-05T15:29:19.563Z,98.29
2023-10-05T15:31:46.334Z,97.97
2023-10-05T15:34:13.782Z,98.12
2023-10-05T15:36:40.717Z,97.03
2023-10-05T15:39:08.164Z,97.31
2023-10-05T15:41:37.116Z,97.18
2023-10-05T15:44:05.720Z,97.91
2023-10-05T15:46:32.482Z,97.81
2023-10-05T15:48:59.154Z,97.93
2023-10-05T15:51:25.762Z,98.73
2023-10-05T15:53:58.666Z,99.60
2023-10-05T15:56:28.430Z,99.29
2023-10-05T15:58:55.092Z,98.93
2023-10-05T16:01:23.243Z,100.00
2023-10-05T16:03:50.045Z,100.00
2023-10-05T16:06:27.132Z,100.00
2023-10-05T16:08:54.459Z,100.00
2023-10-05T16:11:21.490Z,100.00
2023-10-05T16:13:50.313Z,100.00
2023-10-05T16:16:17.708Z,100.00
2023-10-05T16:18:44.445Z,100.00
2023-10-05T16:21:11.024Z,100.00
2023-10-05T16:23:38.817Z,100.00
2023-10-05T16:26:07.910Z,100.00
2023-10-05T16:28:35.432Z,99.48
2023-10-05T16:31:02.288Z,99.01
2023-10-05T16:33:31.810Z,97.16
2023-10-05T16:35:58.466Z,97.70
2023-10-05T16:38:26.901Z,97.46
2023-10-05T16:40:58.217Z,96.84
2023-10-05T16:43:26.538Z,97.57
2023-10-05T16:45:53.244Z,96.71
2023-10-05T16:48:20.047Z,97.03
2023-10-05T16:50:46.694Z,97.09
2023-10-05T16:53:13.345Z,97.19
2023-10-05T16:55:39.936Z,97.62
2023-10-05T16:58:07.463Z,98.56
2023-10-05T17:00:35.184Z,98.76
2023-10-05T17:03:01.934Z,98.91
2023-10-05T17:05:29.433Z,98.45
2023-10-05T17:07:57.488Z,98.80
2023-10-05T17:10:25.192Z,100.00
2023-10-05T17:12:52.918Z,100.00
2023-10-05T17:15:21.394Z,99.75
2023-10-05T17:17:48.300Z,99.91
2023-10-05T17:20:15.071Z,100.00
2023-10-05T17:22:41.717Z,100.00
2023-10-05T17:25:09.131Z,100.00
2023-10-05T17:27:35.902Z,100.00
2023-10-05T17:30:02.506Z,100.00
2023-10-05T17:32:31.228Z,100.00
2023-10-05T17:34:58.269Z,100.00
2023-10-05T17:37:31.974Z,100.00
2023-10-05T17:39:58.728Z,100.00
2023-10-05T17:42:26.328Z,100.00
2023-10-05T17:44:53.309Z,100.00
2023-10-05T17:47:20.164Z,100.00
2023-10-05T17:49:47.015Z,100.00
2023-10-05T17:52:13.697Z,100.00
2023-10-05T17:54:40.520Z,100.00
2023-10-05T17:57:11.746Z,100.00
2023-10-05T17:59:38.849Z,100.00
2023-10-05T18:02:08.409Z,100.00
2023-10-05T18:04:38.198Z,100.00
2023-10-05T18:07:08.183Z,100.00
2023-10-05T18:09:38.501Z,100.00
2023-10-05T18:12:09.061Z,100.00
2023-10-05T18:14:36.434Z,100.00
2023-10-05T18:17:05.988Z,100.00
2023-10-05T18:19:32.882Z,100.00
2023-10-05T18:21:59.536Z,100.00
2023-10-05T18:24:26.411Z,100.00
2023-10-05T18:26:53.022Z,100.00
2023-10-05T18:29:19.707Z,100.00
2023-10-05T18:31:46.566Z,100.00
2023-10-05T18:34:13.537Z,100.00
2023-10-05T18:36:40.715Z,100.00
2023-10-05T18:39:14.556Z,100.00
2023-10-05T18:41:41.735Z,100.00
2023-10-05T18:44:09.422Z,100.00
2023-10-05T18:46:36.433Z,100.00
2023-10-05T18:49:04.766Z,100.00
2023-10-05T18:51:31.915Z,100.00
2023-10-05T18:53:59.713Z,100.00
2023-10-05T18:56:28.542Z,100.00
2023-10-05T18:58:55.596Z,100.00
2023-10-05T19:01:24.960Z,100.00
2023-10-05T19:03:52.319Z,100.00
2023-10-05T19:06:19.284Z,100.00
2023-10-05T19:08:45.974Z,100.00
2023-10-05T19:11:12.847Z,100.00
2023-10-05T19:13:39.993Z,100.00
2023-10-05T19:16:07.258Z,100.00
2023-10-05T19:18:33.877Z,100.00
2023-10-05T19:21:00.478Z,100.00
2023-10-05T19:23:27.192Z,100.00
2023-10-05T19:26:00.349Z,100.00
2023-10-05T19:28:27.440Z,100.00
2023-10-05T19:30:54.302Z,100.00
2023-10-05T19:33:21.057Z,100.00
2023-10-05T19:35:47.950Z,100.00
2023-10-05T19:38:14.626Z,100.00
2023-10-05T19:40:41.277Z,100.00
2023-10-05T19:43:07.949Z,100.00
2023-10-05T19:45:34.557Z,100.00
2023-10-05T19:48:01.324Z,100.00
2023-10-05T19:50:27.942Z,100.00
2023-10-05T19:52:54.613Z,100.00
2023-10-05T19:55:21.334Z,100.00
2023-10-05T19:57:47.993Z,100.00
2023-10-05T20:00:14.960Z,100.00
2023-10-05T20:02:41.830Z,100.00
2023-10-05T20:05:09.411Z,100.00
2023-10-05T20:07:36.127Z,100.00
2023-10-05T20:10:03.816Z,100.00
2023-10-05T20:12:30.460Z,100.00
2023-10-05T20:14:57.372Z,100.00
2023-10-05T20:17:24.445Z,100.00
2023-10-05T20:19:52.498Z,100.00
2023-10-05T20:22:19.135Z,100.00
2023-10-05T20:24:45.740Z,100.00
2023-10-05T20:27:16.809Z,100.00
2023-10-05T20:29:44.219Z,100.00
2023-10-05T20:32:13.712Z,100.00
2023-10-05T20:34:43.046Z,100.00
2023-10-05T20:37:09.672Z,100.00
2023-10-05T20:39:36.669Z,100.00
2023-10-05T20:42:03.306Z,100.00
2023-10-05T20:44:29.925Z,100.00
2023-10-05T20:47:01.147Z,100.00
2023-10-05T20:49:29.154Z,100.00
2023-10-05T20:51:55.738Z,100.00
2023-10-05T20:54:22.348Z,100.00
2023-10-05T20:56:49.069Z,100.00
2023-10-05T20:59:15.682Z,100.00
2023-10-05T21:01:42.368Z,100.00
2023-10-05T21:04:10.135Z,100.00
2023-10-05T21:06:37.302Z,100.00
2023-10-05T21:09:05.376Z,100.00
2023-10-05T21:11:34.331Z,100.00
2023-10-05T21:14:01.819Z,100.00
2023-10-05T21:16:28.808Z,100.00
2023-10-05T21:18:56.260Z,100.00
2023-10-05T21:21:23.070Z,100.00
2023-10-05T21:23:49.715Z,100.00
2023-10-05T21:26:17.067Z,100.00
2023-10-05T21:28:44.721Z,100.00
2023-10-05T21:31:11.373Z,100.00
2023-10-05T21:33:38.081Z,100.00
2023-10-05T21:36:07.517Z,100.00
2023-10-05T21:38:34.379Z,100.00
2023-10-05T21:41:05.193Z,100.00
2023-10-05T21:43:32.977Z,100.00
2023-10-05T21:45:59.730Z,100.00
2023-10-05T21:48:26.549Z,100.00
2023-10-05T21:50:53.151Z,100.00
2023-10-05T21:53:19.813Z,100.00
2023-10-05T21:55:46.404Z,100.00
2023-10-05T21:58:14.327Z,100.00
2023-10-05T22:00:40.903Z,100.00
2023-10-05T22:03:08.684Z,100.00
2023-10-05T22:05:37.634Z,100.00
2023-10-05T22:08:08.277Z,100.00
2023-10-05T22:10:36.327Z,100.00
2023-10-05T22:13:04.338Z,100.00
2023-10-05T22:15:33.852Z,100.00
2023-10-05T22:18:01.045Z,100.00
2023-10-05T22:20:28.205Z,100.00
2023-10-05T22:22:56.183Z,100.00
2023-10-05T22:25:23.378Z,100.00
2023-10-05T22:27:53.023Z,100.00
2023-10-05T22:30:20.225Z,100.00
2023-10-05T22:32:47.784Z,100.00
2023-10-05T22:35:14.976Z,100.00
2023-10-05T22:37:41.618Z,100.00
2023-10-05T22:40:08.626Z,100.00
2023-10-05T22:42:38.072Z,100.00
2023-10-05T22:45:04.870Z,100.00
2023-10-05T22:47:31.434Z,100.00
2023-10-05T22:50:01.139Z,100.00
2023-10-05T22:52:27.883Z,100.00
2023-10-05T22:54:56.414Z,100.00
2023-10-05T22:57:23.638Z,100.00
2023-10-05T22:59:50.657Z,100.00
2023-10-05T23:02:17.456Z,99.73
2023-10-05T23:04:44.384Z,99.89
2023-10-05T23:07:11.449Z,99.44
2023-10-05T23:09:38.681Z,99.60
2023-10-05T23:12:12.688Z,99.40
2023-10-05T23:14:39.647Z,98.47
2023-10-05T23:17:09.340Z,98.46
2023-10-05T23:19:37.092Z,100.00
2023-10-05T23:22:04.544Z,99.72
2023-10-05T23:24:32.005Z,99.81
2023-10-05T23:27:00.605Z,100.00
2023-10-05T23:29:30.032Z,100.00
2023-10-05T23:31:58.110Z,99.33
2023-10-05T23:34:26.243Z,100.00
2023-10-05T23:36:55.588Z,100.00
2023-10-05T23:39:25.125Z,100.00
2023-10-05T23:41:53.268Z,100.00
2023-10-05T23:44:23.271Z,100.00
2023-10-05T23:46:50.824Z,100.00
2023-10-05T23:49:18.233Z,100.00
2023-10-05T23:51:46.095Z,100.00
2023-10-05T23:54:13.735Z,100.00
2023-10-05T23:56:42.530Z,99.73
2023-10-05T23:59:12.621Z,100.00
